createdAt,value
2023-01-01T00:01:27.026Z,12.11
2023-01-01T00:03:55.613Z,12.05
2023-01-01T00:06:22.725Z,12.04
2023-01-01T00:09:09.815Z,11.99
2023-01-01T00:11:36.733Z,12.00
2023-01-01T00:14:10.034Z,11.94
2023-01-01T00:16:38.920Z,11.95
2023-01-01T00:19:05.571Z,11.91
2023-01-01T00:21:31.966Z,11.89
2023-01-01T00:23:58.438Z,11.86
2023-01-01T00:26:31.086Z,11.85
2023-01-01T00:29:01.238Z,11.87
2023-01-01T00:31:27.810Z,11.78
2023-01-01T00:33:55.395Z,11.81
2023-01-01T00:36:24.373Z,11.75
2023-01-01T00:38:50.756Z,11.67
2023-01-01T00:41:18.119Z,11.71
2023-01-01T00:43:45.201Z,11.74
2023-01-01T00:46:12.022Z,11.86
2023-01-01T00:48:38.903Z,11.86
2023-01-01T00:51:05.757Z,11.85
2023-01-01T00:53:32.389Z,11.92
2023-01-01T00:55:58.835Z,11.98
2023-01-01T00:58:25.852Z,11.93
2023-01-01T01:00:53.219Z,11.95
2023-01-01T01:03:28.953Z,11.94
2023-01-01T01:06:09.158Z,11.93
2023-01-01T01:08:36.994Z,11.95
2023-01-01T01:11:13.787Z,11.83
2023-01-01T01:13:41.364Z,11.81
2023-01-01T01:16:13.360Z,11.79
2023-01-01T01:18:40.161Z,11.81
2023-01-01T01:21:06.820Z,11.84
2023-01-01T01:23:33.860Z,11.90
2023-01-01T01:26:30.536Z,11.81
2023-01-01T01:28:58.006Z,11.80
2023-01-01T01:31:27.096Z,11.77
2023-01-01T01:33:53.518Z,11.78
2023-01-01T01:36:20.458Z,11.83
2023-01-01T01:38:47.266Z,11.93
2023-01-01T01:41:26.738Z,11.99
2023-01-01T01:43:59.234Z,11.95
2023-01-01T01:46:41.145Z,11.94
2023-01-01T01:49:17.746Z,12.00
2023-01-01T01:51:45.496Z,11.99
2023-01-01T01:54:17.576Z,12.08
2023-01-01T01:56:54.457Z,12.08
2023-01-01T01:59:24.738Z,12.10
2023-01-01T02:04:25.821Z,12.17
2023-01-01T02:06:52.905Z,12.21
2023-01-01T02:09:19.744Z,12.21
2023-01-01T02:11:46.133Z,12.26
2023-01-01T02:14:12.790Z,12.34
2023-01-01T02:16:43.116Z,12.31
2023-01-01T02:19:15.569Z,12.41
2023-01-01T02:22:06.399Z,12.44
2023-01-01T02:24:41.727Z,12.42
2023-01-01T02:27:45.998Z,12.43
2023-01-01T02:30:12.987Z,12.52
2023-01-01T02:32:47.198Z,12.47
2023-01-01T02:35:36.314Z,12.56
2023-01-01T02:38:24.067Z,12.61
2023-01-01T02:40:55.926Z,12.65
2023-01-01T02:43:24.941Z,12.58
2023-01-01T02:45:53.176Z,12.54
2023-01-01T02:48:38.502Z,12.57
2023-01-01T02:51:13.759Z,12.52
2023-01-01T02:54:07.323Z,12.47
2023-01-01T02:56:56.005Z,12.59
2023-01-01T02:59:47.207Z,12.70
2023-01-01T03:02:28.657Z,12.78
2023-01-01T03:05:17.016Z,12.79
2023-01-01T03:08:17.247Z,12.81
2023-01-01T03:11:00.278Z,12.87
2023-01-01T03:13:35.050Z,12.90
2023-01-01T03:16:22.587Z,12.88
2023-01-01T03:19:10.737Z,12.95
2023-01-01T03:21:59.016Z,12.90
2023-01-01T03:24:27.984Z,12.82
2023-01-01T03:26:58.730Z,12.89
2023-01-01T03:29:28.745Z,12.88
2023-01-01T03:31:58.044Z,12.91
2023-01-01T03:34:33.167Z,12.94
2023-01-01T03:37:01.037Z,12.94
2023-01-01T03:39:34.260Z,12.88
2023-01-01T03:42:06.569Z,12.85
2023-01-01T03:44:38.421Z,12.78
2023-01-01T03:47:06.639Z,12.66
2023-01-01T03:49:34.154Z,12.64
2023-01-01T03:52:12.538Z,12.62
2023-01-01T03:55:08.166Z,12.50
2023-01-01T03:57:53.176Z,12.55
2023-01-01T04:00:22.993Z,12.50
2023-01-01T04:02:55.070Z,12.47
2023-01-01T04:05:23.343Z,12.48
2023-01-01T04:10:17.630Z,12.51
2023-01-01T04:12:56.638Z,12.49
2023-01-01T04:15:25.948Z,12.51
2023-01-01T04:17:53.697Z,12.43
2023-01-01T04:20:21.086Z,12.43
2023-01-01T04:22:47.857Z,12.38
2023-01-01T04:25:14.576Z,12.40
2023-01-01T04:27:41.274Z,12.43
2023-01-01T04:30:11.543Z,12.48
2023-01-01T04:32:38.547Z,12.49
2023-01-01T04:35:06.066Z,12.43
2023-01-01T04:37:32.470Z,12.45
2023-01-01T04:39:58.798Z,12.35
2023-01-01T04:42:25.178Z,12.32
2023-01-01T04:44:51.612Z,12.28
2023-01-01T04:47:18.031Z,12.33
2023-01-01T04:49:44.459Z,12.34
2023-01-01T04:52:10.820Z,12.37
2023-01-01T04:54:37.189Z,12.28
2023-01-01T04:57:03.668Z,12.25
2023-01-01T04:59:31.047Z,12.29
2023-01-01T05:01:58.255Z,12.28
2023-01-01T05:04:24.771Z,12.24
2023-01-01T05:06:51.192Z,12.26
2023-01-01T05:09:17.560Z,12.31
2023-01-01T05:11:43.960Z,12.26
2023-01-01T05:14:10.524Z,12.30
2023-01-01T05:16:39.429Z,12.33
2023-01-01T05:19:07.037Z,12.28
2023-01-01T05:21:35.853Z,12.31
2023-01-01T05:24:07.857Z,12.30
2023-01-01T05:26:40.548Z,12.30
2023-01-01T05:29:13.792Z,12.27
2023-01-01T05:31:42.913Z,12.30
2023-01-01T05:34:09.337Z,12.28
2023-01-01T05:36:38.860Z,12.32
2023-01-01T05:39:07.064Z,12.34
2023-01-01T05:41:36.171Z,12.28
2023-01-01T05:44:07.197Z,12.25
2023-01-01T05:46:34.156Z,12.26
2023-01-01T05:49:00.824Z,12.27
2023-01-01T05:51:29.412Z,12.25
2023-01-01T05:53:56.748Z,12.28
2023-01-01T05:56:23.632Z,12.21
2023-01-01T05:58:50.607Z,12.12
2023-01-01T06:01:28.688Z,12.15
2023-01-01T06:03:57.143Z,12.20
2023-01-01T06:06:29.723Z,12.23
2023-01-01T06:09:01.543Z,12.31
2023-01-01T06:11:28.618Z,12.28
2023-01-01T06:13:56.975Z,12.22
2023-01-01T06:16:24.279Z,12.25
2023-01-01T06:18:51.279Z,12.28
2023-01-01T06:21:23.331Z,12.28
2023-01-01T06:23:49.996Z,12.22
2023-01-01T06:26:21.930Z,12.32
2023-01-01T06:28:49.296Z,12.27
2023-01-01T06:31:17.948Z,12.27
2023-01-01T06:33:45.771Z,12.27
2023-01-01T06:36:14.038Z,12.32
2023-01-01T06:38:43.416Z,12.25
2023-01-01T06:41:16.051Z,12.24
2023-01-01T06:43:42.810Z,12.13
2023-01-01T06:46:27.604Z,12.26
2023-01-01T06:49:01.081Z,12.23
2023-01-01T06:51:33.304Z,12.21
2023-01-01T06:54:01.365Z,12.26
2023-01-01T06:56:28.177Z,12.26
2023-01-01T06:58:54.718Z,12.27
2023-01-01T07:01:25.740Z,12.22
2023-01-01T07:03:52.958Z,12.22
2023-01-01T07:06:19.545Z,12.16
2023-01-01T07:08:46.054Z,12.19
2023-01-01T07:11:12.662Z,12.09
2023-01-01T07:13:39.035Z,12.10
2023-01-01T07:16:12.328Z,12.11
2023-01-01T07:18:39.269Z,12.11
2023-01-01T07:21:07.215Z,12.06
2023-01-01T07:23:35.255Z,12.11
2023-01-01T07:26:01.960Z,12.07
2023-01-01T07:28:28.357Z,12.09
2023-01-01T07:30:54.790Z,12.05
2023-01-01T07:33:24.075Z,12.01
2023-01-01T07:35:51.136Z,12.05
2023-01-01T07:38:17.542Z,11.93
2023-01-01T07:40:44.020Z,11.98
2023-01-01T07:43:14.143Z,11.99
2023-01-01T07:45:40.977Z,11.94
2023-01-01T07:48:09.321Z,12.12
2023-01-01T07:50:38.091Z,12.04
2023-01-01T07:53:04.592Z,12.05
2023-01-01T07:55:30.986Z,12.05
2023-01-01T07:57:57.368Z,12.12
2023-01-01T08:00:23.780Z,12.17
2023-01-01T08:02:50.250Z,12.10
2023-01-01T08:05:21.242Z,12.15
2023-01-01T08:07:52.646Z,12.13
2023-01-01T08:10:20.337Z,12.08
2023-01-01T08:12:47.261Z,12.18
2023-01-01T08:15:14.158Z,12.17
2023-01-01T08:17:46.179Z,12.25
2023-01-01T08:20:13.619Z,12.21
2023-01-01T08:22:40.468Z,12.25
2023-01-01T08:25:12.638Z,12.28
2023-01-01T08:27:42.375Z,12.29
2023-01-01T08:30:11.336Z,12.31
2023-01-01T08:32:37.732Z,12.20
2023-01-01T08:35:05.208Z,12.34
2023-01-01T08:37:34.767Z,12.32
2023-01-01T08:40:01.485Z,12.32
2023-01-01T08:42:27.893Z,12.31
2023-01-01T08:44:54.305Z,12.37
2023-01-01T08:47:23.296Z,12.35
2023-01-01T08:49:50.405Z,12.41
2023-01-01T08:52:17.323Z,12.34
2023-01-01T08:54:43.887Z,12.40
2023-01-01T08:57:11.121Z,12.46
2023-01-01T08:59:37.779Z,12.31
2023-01-01T09:02:04.979Z,12.31
2023-01-01T09:04:32.000Z,12.36
2023-01-01T09:06:58.406Z,12.35
2023-01-01T09:09:31.106Z,12.25
2023-01-01T09:12:01.708Z,12.36
2023-01-01T09:14:28.185Z,12.31
2023-01-01T09:16:54.536Z,12.25
2023-01-01T09:19:20.962Z,12.35
2023-01-01T09:21:47.479Z,12.44
2023-01-01T09:24:13.918Z,12.50
2023-01-01T09:26:40.314Z,12.53
2023-01-01T09:29:06.743Z,12.57
2023-01-01T09:31:33.177Z,12.53
2023-01-01T09:33:59.613Z,12.54
2023-01-01T09:36:32.014Z,12.50
2023-01-01T09:38:59.387Z,12.61
2023-01-01T09:41:35.669Z,12.53
2023-01-01T09:44:20.685Z,12.53
2023-01-01T09:46:47.899Z,12.56
2023-01-01T09:49:29.323Z,12.55
2023-01-01T09:52:01.123Z,12.48
2023-01-01T09:54:52.518Z,12.47
2023-01-01T09:57:20.354Z,12.54
2023-01-01T09:59:47.049Z,12.54
2023-01-01T10:02:16.415Z,12.53
2023-01-01T10:04:48.668Z,12.49
2023-01-01T10:07:33.978Z,12.52
2023-01-01T10:10:06.408Z,12.46
2023-01-01T10:12:47.667Z,12.36
2023-01-01T10:15:31.813Z,12.46
2023-01-01T10:18:00.737Z,12.52
2023-01-01T10:20:36.823Z,12.51
2023-01-01T10:23:12.650Z,12.51
2023-01-01T10:25:40.819Z,12.59
2023-01-01T10:28:15.596Z,12.52
2023-01-01T10:30:42.994Z,12.59
2023-01-01T10:33:13.581Z,12.55
2023-01-01T10:35:47.221Z,12.57
2023-01-01T10:38:26.452Z,12.56
2023-01-01T10:41:17.153Z,12.54
2023-01-01T10:43:46.815Z,12.53
2023-01-01T10:46:18.293Z,12.52
2023-01-01T10:49:11.948Z,12.62
2023-01-01T10:51:44.880Z,12.62
2023-01-01T10:54:39.975Z,12.70
2023-01-01T10:57:31.751Z,12.70
2023-01-01T11:00:24.123Z,12.63
2023-01-01T11:03:25.948Z,12.65
2023-01-01T11:06:02.794Z,12.67
2023-01-01T11:08:31.887Z,12.71
2023-01-01T11:11:00.367Z,12.67
2023-01-01T11:13:28.990Z,12.67
2023-01-01T11:15:56.334Z,12.67
2023-01-01T11:18:27.903Z,12.69
2023-01-01T11:20:59.475Z,12.70
2023-01-01T11:23:31.716Z,12.71
2023-01-01T11:26:05.395Z,12.68
2023-01-01T11:28:34.821Z,12.64
2023-01-01T11:31:18.921Z,12.62
2023-01-01T11:33:53.622Z,12.64
2023-01-01T11:36:25.134Z,12.74
2023-01-01T11:39:21.640Z,12.73
2023-01-01T11:41:54.137Z,12.76
2023-01-01T11:44:36.178Z,12.69
2023-01-01T11:47:04.394Z,12.72
2023-01-01T11:49:31.403Z,12.67
2023-01-01T11:51:59.013Z,12.71
2023-01-01T11:54:38.125Z,12.72
2023-01-01T11:57:16.960Z,12.75
2023-01-01T11:59:52.156Z,12.73
2023-01-01T12:02:23.823Z,12.74
2023-01-01T12:04:57.066Z,12.74
2023-01-01T12:07:29.590Z,12.80
2023-01-01T12:10:02.562Z,12.76
2023-01-01T12:12:41.235Z,12.80
2023-01-01T12:15:28.719Z,12.79
2023-01-01T12:18:16.221Z,12.81
2023-01-01T12:20:55.029Z,12.74
2023-01-01T12:23:21.538Z,12.70
2023-01-01T12:26:00.570Z,12.70
2023-01-01T12:28:48.494Z,12.79
2023-01-01T12:31:36.658Z,12.75
2023-01-01T12:34:20.463Z,12.74
2023-01-01T12:36:58.187Z,12.73
2023-01-01T12:39:30.316Z,12.72
2023-01-01T12:42:02.735Z,12.72
2023-01-01T12:44:44.824Z,12.74
2023-01-01T12:47:26.193Z,12.79
2023-01-01T12:50:23.989Z,12.73
2023-01-01T12:53:25.514Z,12.78
2023-01-01T12:55:58.107Z,12.70
2023-01-01T12:58:32.258Z,12.64
2023-01-01T13:01:05.598Z,12.67
2023-01-01T13:03:49.186Z,12.74
2023-01-01T13:06:24.883Z,12.74
2023-01-01T13:09:02.515Z,12.71
2023-01-01T13:11:29.286Z,12.74
2023-01-01T13:13:55.903Z,12.81
2023-01-01T13:16:41.316Z,12.74
2023-01-01T13:19:24.707Z,12.75
2023-01-01T13:21:51.148Z,12.72
2023-01-01T13:24:25.206Z,12.69
2023-01-01T13:26:52.878Z,12.68
2023-01-01T13:29:19.186Z,12.65
2023-01-01T13:31:48.433Z,12.61
2023-01-01T13:34:35.435Z,12.60
2023-01-01T13:37:11.340Z,12.55
2023-01-01T13:39:56.711Z,12.58
2023-01-01T13:42:52.711Z,12.58
2023-01-01T13:48:21.548Z,12.54
2023-01-01T13:51:11.188Z,12.60
2023-01-01T13:53:53.191Z,12.60
2023-01-01T13:56:35.258Z,12.57
2023-01-01T13:59:11.649Z,12.52
2023-01-01T14:01:56.397Z,12.43
2023-01-01T14:04:43.141Z,12.49
2023-01-01T14:07:49.686Z,12.53
2023-01-01T14:10:28.182Z,12.44
2023-01-01T14:13:02.005Z,12.51
2023-01-01T14:15:34.646Z,12.52
2023-01-01T14:18:04.420Z,12.55
2023-01-01T14:20:36.467Z,12.54
2023-01-01T14:23:12.940Z,12.49
2023-01-01T14:25:42.307Z,12.45
2023-01-01T14:28:17.808Z,12.51
2023-01-01T14:30:44.537Z,12.48
2023-01-01T14:33:22.403Z,12.46
2023-01-01T14:35:56.915Z,12.38
2023-01-01T14:38:31.480Z,12.34
2023-01-01T14:41:32.450Z,12.35
2023-01-01T14:44:11.483Z,12.34
2023-01-01T14:46:43.671Z,12.39
2023-01-01T14:49:15.274Z,12.37
2023-01-01T14:51:46.066Z,12.25
2023-01-01T14:54:21.153Z,12.26
2023-01-01T14:56:48.625Z,12.20
2023-01-01T14:59:28.689Z,12.11
2023-01-01T15:02:14.892Z,12.05
2023-01-01T15:04:42.249Z,12.13
2023-01-01T15:07:26.965Z,12.24
2023-01-01T15:09:55.685Z,12.17
2023-01-01T15:12:23.277Z,12.21
2023-01-01T15:14:52.297Z,12.08
2023-01-01T15:17:21.299Z,12.07
2023-01-01T15:20:18.899Z,12.14
2023-01-01T15:22:45.557Z,12.19
2023-01-01T15:25:17.482Z,12.12
2023-01-01T15:27:49.314Z,12.20
2023-01-01T15:30:31.955Z,12.07
2023-01-01T15:33:07.541Z,12.02
2023-01-01T15:35:37.608Z,11.98
2023-01-01T15:38:22.643Z,11.92
2023-01-01T15:40:53.270Z,11.92
2023-01-01T15:43:25.621Z,11.75
2023-01-01T15:45:57.591Z,11.66
2023-01-01T15:48:48.568Z,11.56
2023-01-01T15:51:33.747Z,11.45
2023-01-01T15:54:04.719Z,11.46
2023-01-01T15:56:33.983Z,11.44
2023-01-01T15:59:08.415Z,11.39
2023-01-01T16:01:38.276Z,11.35
2023-01-01T16:04:11.489Z,11.39
2023-01-01T16:06:46.826Z,11.31
2023-01-01T16:09:14.438Z,11.28
2023-01-01T16:11:40.920Z,11.26
2023-01-01T16:14:07.409Z,11.29
2023-01-01T16:16:34.423Z,11.28
2023-01-01T16:19:00.975Z,11.34
2023-01-01T16:21:29.592Z,11.39
2023-01-01T16:23:56.058Z,11.32
2023-01-01T16:26:22.669Z,11.31
2023-01-01T16:28:49.157Z,11.27
2023-01-01T16:31:28.449Z,11.35
2023-01-01T16:33:57.595Z,11.36
2023-01-01T16:36:24.771Z,11.39
2023-01-01T16:38:51.244Z,11.34
2023-01-01T16:41:18.474Z,11.35
2023-01-01T16:43:46.333Z,11.30
2023-01-01T16:46:13.816Z,11.31
2023-01-01T16:48:41.210Z,11.27
2023-01-01T16:51:19.767Z,11.35
2023-01-01T16:53:47.134Z,11.40
2023-01-01T16:56:14.522Z,11.38
2023-01-01T16:58:50.772Z,11.29
2023-01-01T17:01:18.777Z,11.29
2023-01-01T17:03:45.318Z,11.37
2023-01-01T17:06:12.046Z,11.48
2023-01-01T17:08:39.151Z,11.50
2023-01-01T17:11:10.778Z,11.38
2023-01-01T17:13:37.293Z,11.35
2023-01-01T17:16:03.965Z,11.48
2023-01-01T17:19:04.176Z,11.50
2023-01-01T17:21:18.444Z,11.42
2023-01-01T17:23:45.173Z,11.36
2023-01-01T17:26:19.835Z,11.36
2023-01-01T17:28:48.020Z,11.37
2023-01-01T17:31:16.791Z,11.36
2023-01-01T17:33:43.775Z,11.41
2023-01-01T17:36:11.018Z,11.43
2023-01-01T17:38:38.191Z,11.44
2023-01-01T17:41:07.418Z,11.45
2023-01-01T17:43:35.470Z,11.42
2023-01-01T17:46:04.012Z,11.42
2023-01-01T17:48:30.539Z,11.50
2023-01-01T17:50:56.890Z,11.45
2023-01-01T17:53:23.285Z,11.40
2023-01-01T17:55:57.078Z,11.39
2023-01-01T17:58:23.847Z,11.40
2023-01-01T18:00:50.867Z,11.44
2023-01-01T18:03:19.225Z,11.43
2023-01-01T18:05:45.797Z,11.37
2023-01-01T18:08:12.225Z,11.33
2023-01-01T18:10:38.586Z,11.26
2023-01-01T18:13:04.994Z,11.23
2023-01-01T18:15:35.855Z,11.23
2023-01-01T18:18:02.227Z,11.21
2023-01-01T18:20:28.565Z,11.20
2023-01-01T18:22:55.063Z,11.18
2023-01-01T18:25:21.433Z,11.17
2023-01-01T18:27:52.512Z,11.14
2023-01-01T18:30:22.516Z,11.20
2023-01-01T18:32:49.478Z,11.11
2023-01-01T18:35:16.040Z,11.07
2023-01-01T18:37:42.539Z,11.02
2023-01-01T18:40:15.113Z,11.03
2023-01-01T18:42:50.964Z,10.95
2023-01-01T18:45:20.288Z,10.91
2023-01-01T18:47:47.085Z,10.91
2023-01-01T18:50:26.528Z,10.88
2023-01-01T18:53:06.909Z,10.80
2023-01-01T18:55:33.352Z,10.77
2023-01-01T18:58:13.812Z,10.76
2023-01-01T19:00:40.397Z,10.75
2023-01-01T19:03:14.532Z,10.69
2023-01-01T19:05:40.970Z,10.68
2023-01-01T19:08:07.416Z,10.67
2023-01-01T19:10:43.156Z,10.63
2023-01-01T19:13:37.406Z,10.64
2023-01-01T19:16:23.761Z,10.66
2023-01-01T19:18:50.539Z,10.65
2023-01-01T19:21:22.346Z,10.67
2023-01-01T19:23:51.687Z,10.64
2023-01-01T19:26:25.494Z,10.66
2023-01-01T19:28:57.111Z,10.70
2023-01-01T19:31:24.144Z,10.64
2023-01-01T19:33:50.592Z,10.64
2023-01-01T19:36:17.014Z,10.69
2023-01-01T19:38:44.052Z,10.76
2023-01-01T19:41:15.613Z,10.70
2023-01-01T19:43:42.159Z,10.76
2023-01-01T19:46:08.759Z,10.81
2023-01-01T19:48:35.315Z,10.78
2023-01-01T19:51:01.923Z,10.77
2023-01-01T19:53:28.317Z,10.87
2023-01-01T19:55:54.684Z,10.91
2023-01-01T19:58:22.379Z,10.97
2023-01-01T20:00:49.671Z,10.94
2023-01-01T20:03:52.133Z,10.93
2023-01-01T20:06:02.844Z,10.87
2023-01-01T20:08:30.864Z,10.88
2023-01-01T20:10:57.226Z,10.93
2023-01-01T20:13:23.650Z,10.93
2023-01-01T20:15:50.252Z,10.94
2023-01-01T20:18:16.799Z,10.94
2023-01-01T20:21:03.230Z,10.95
2023-01-01T20:23:29.837Z,11.02
2023-01-01T20:25:56.245Z,11.11
2023-01-01T20:28:41.263Z,11.24
2023-01-01T20:31:07.726Z,11.15
2023-01-01T20:33:34.110Z,11.20
2023-01-01T20:36:32.909Z,11.12
2023-01-01T20:38:59.381Z,11.14
2023-01-01T20:41:25.980Z,11.10
2023-01-01T20:43:57.293Z,11.07
2023-01-01T20:46:25.306Z,11.09
2023-01-01T20:48:52.933Z,11.15
2023-01-01T20:51:19.419Z,11.20
2023-01-01T20:53:45.866Z,11.24
2023-01-01T20:56:12.311Z,11.25
2023-01-01T20:58:42.764Z,11.32
2023-01-01T21:01:13.002Z,11.37
2023-01-01T21:03:39.481Z,11.40
2023-01-01T21:06:06.130Z,11.42
2023-01-01T21:08:32.493Z,11.44
2023-01-01T21:10:58.891Z,11.49
2023-01-01T21:13:25.703Z,11.54
2023-01-01T21:15:56.139Z,11.59
2023-01-01T21:18:23.227Z,11.56
2023-01-01T21:20:49.805Z,11.61
2023-01-01T21:23:29.746Z,11.68
2023-01-01T21:25:56.876Z,11.69
2023-01-01T21:28:28.526Z,11.74
2023-01-01T21:30:56.923Z,11.94
2023-01-01T21:33:31.822Z,12.06
2023-01-01T21:36:01.974Z,12.01
2023-01-01T21:38:31.549Z,12.03
2023-01-01T21:40:59.945Z,12.10
2023-01-01T21:43:38.163Z,12.08
2023-01-01T21:46:07.733Z,12.20
2023-01-01T21:48:44.957Z,12.28
2023-01-01T21:51:40.926Z,12.40
2023-01-01T21:54:10.474Z,12.42
2023-01-01T21:56:38.839Z,12.42
2023-01-01T21:59:27.753Z,12.41
2023-01-01T22:02:30.261Z,12.41
2023-01-01T22:04:56.797Z,12.44
2023-01-01T22:10:32.682Z,12.52
2023-01-01T22:13:00.656Z,12.59
2023-01-01T22:15:27.501Z,12.60
2023-01-01T22:18:12.074Z,12.52
2023-01-01T22:20:41.650Z,12.57
2023-01-01T22:23:19.257Z,12.55
2023-01-01T22:25:47.326Z,12.56
2023-01-01T22:28:24.008Z,12.56
2023-01-01T22:30:54.897Z,12.56
2023-01-01T22:33:40.196Z,12.61
2023-01-01T22:36:14.938Z,12.61
2023-01-01T22:38:41.652Z,12.65
2023-01-01T22:41:08.428Z,12.59
2023-01-01T22:43:37.905Z,12.55
2023-01-01T22:46:13.075Z,12.61
2023-01-01T22:48:40.461Z,12.53
2023-01-01T22:51:23.258Z,12.59
2023-01-01T22:53:50.716Z,12.68
2023-01-01T22:56:17.521Z,12.72
2023-01-01T22:58:44.008Z,12.72
2023-01-01T23:01:10.744Z,12.70
2023-01-01T23:03:37.154Z,12.65
2023-01-01T23:06:03.939Z,12.63
2023-01-01T23:08:30.834Z,12.70
2023-01-01T23:10:58.694Z,12.69
2023-01-01T23:13:43.744Z,12.69
2023-01-01T23:16:10.380Z,12.71
2023-01-01T23:18:37.648Z,12.70
2023-01-01T23:21:15.144Z,12.74
2023-01-01T23:23:41.811Z,12.78
2023-01-01T23:26:08.738Z,12.83
2023-01-01T23:28:35.858Z,12.85
2023-01-01T23:31:04.820Z,12.87
2023-01-01T23:33:31.732Z,12.86
2023-01-01T23:35:59.184Z,12.87
2023-01-01T23:38:26.973Z,12.97
2023-01-01T23:40:53.390Z,12.91
2023-01-01T23:43:19.770Z,12.87
2023-01-01T23:45:47.441Z,12.92
2023-01-01T23:48:15.447Z,12.98
2023-01-01T23:50:42.177Z,13.04
2023-01-01T23:53:08.716Z,13.04
2023-01-01T23:55:35.166Z,13.02
2023-01-01T23:58:01.629Z,12.96
